createdAt,value
2022-08-12T00:00:05.260Z,20.49
2022-08-12T00:02:47.467Z,20.45
2022-08-12T00:05:31.841Z,20.28
2022-08-12T00:08:14.021Z,20.31
2022-08-12T00:10:56.341Z,20.33
2022-08-12T00:13:38.536Z,20.31
2022-08-12T00:16:23.647Z,20.22
2022-08-12T00:19:05.852Z,20.08
2022-08-12T00:21:48.391Z,20.08
2022-08-12T00:24:30.513Z,20.01
2022-08-12T00:27:13.802Z,19.90
2022-08-12T00:29:56.859Z,19.97
2022-08-12T00:32:50.957Z,19.89
2022-08-12T00:35:39.093Z,19.85
2022-08-12T00:38:22.797Z,19.78
2022-08-12T00:41:04.958Z,19.73
2022-08-12T00:43:37.582Z,19.74
2022-08-12T00:46:23.513Z,19.67
2022-08-12T00:48:56.383Z,19.61
2022-08-12T00:51:47.594Z,19.65
2022-08-12T00:54:17.361Z,19.58
2022-08-12T00:56:52.193Z,19.47
2022-08-12T00:59:24.766Z,19.37
2022-08-12T01:02:02.283Z,19.42
2022-08-12T01:04:59.519Z,19.32
2022-08-12T01:07:43.356Z,19.25
2022-08-12T01:10:29.483Z,19.24
2022-08-12T01:13:18.519Z,19.14
2022-08-12T01:15:52.282Z,19.02
2022-08-12T01:18:23.605Z,19.02
2022-08-12T01:21:09.598Z,18.95
2022-08-12T01:24:23.014Z,18.95
2022-08-12T01:26:58.983Z,18.96
2022-08-12T01:29:33.065Z,18.79
2022-08-12T01:32:08.892Z,18.70
2022-08-12T01:34:40.227Z,18.70
2022-08-12T01:37:11.790Z,18.67
2022-08-12T01:40:33.785Z,18.65
2022-08-12T01:42:48.713Z,18.65
2022-08-12T01:45:24.682Z,18.51
2022-08-12T01:48:08.402Z,18.51
2022-08-12T01:50:43.869Z,18.53
2022-08-12T01:53:17.317Z,18.43
2022-08-12T01:55:50.504Z,18.47
2022-08-12T01:58:32.024Z,18.53
2022-08-12T02:01:03.908Z,18.49
2022-08-12T02:04:04.365Z,18.38
2022-08-12T02:06:52.054Z,18.36
2022-08-12T02:09:48.012Z,18.37
2022-08-12T02:12:28.544Z,18.37
2022-08-12T02:15:13.183Z,18.37
2022-08-12T02:18:04.054Z,18.31
2022-08-12T02:20:52.462Z,18.39
2022-08-12T02:23:28.238Z,18.48
2022-08-12T02:26:01.525Z,18.43
2022-08-12T02:28:32.384Z,18.45
2022-08-12T02:31:09.113Z,18.33
2022-08-12T02:33:41.651Z,18.32
2022-08-12T02:36:11.753Z,18.32
2022-08-12T02:38:45.808Z,18.27
2022-08-12T02:41:18.357Z,18.28
2022-08-12T02:43:54.585Z,18.18
2022-08-12T02:46:32.559Z,18.22
2022-08-12T02:49:07.768Z,18.16
2022-08-12T02:51:44.547Z,18.19
2022-08-12T02:54:14.854Z,18.27
2022-08-12T02:56:47.121Z,18.31
2022-08-12T02:59:24.485Z,18.35
2022-08-12T03:01:58.258Z,18.34
2022-08-12T03:04:33.860Z,18.34
2022-08-12T03:07:14.900Z,18.36
2022-08-12T03:10:05.337Z,18.42
2022-08-12T03:12:44.810Z,18.46
2022-08-12T03:15:22.940Z,18.42
2022-08-12T03:18:26.887Z,18.38
2022-08-12T03:20:52.594Z,18.37
2022-08-12T03:23:29.806Z,18.37
2022-08-12T03:26:02.903Z,18.33
2022-08-12T03:28:46.949Z,18.32
2022-08-12T03:31:16.893Z,18.30
2022-08-12T03:34:02.265Z,18.28
2022-08-12T03:36:35.755Z,18.15
2022-08-12T03:39:35.936Z,18.07
2022-08-12T03:42:17.069Z,18.03
2022-08-12T03:45:08.378Z,17.93
2022-08-12T03:47:57.677Z,17.88
2022-08-12T03:50:43.100Z,17.89
2022-08-12T03:53:25.728Z,17.87
2022-08-12T03:56:08.684Z,17.89
2022-08-12T03:58:51.828Z,17.85
2022-08-12T04:01:23.270Z,17.80
2022-08-12T04:03:55.888Z,17.74
2022-08-12T04:06:35.496Z,17.68
2022-08-12T04:09:15.930Z,17.67
2022-08-12T04:12:00.615Z,17.71
2022-08-12T04:14:30.853Z,17.62
2022-08-12T04:17:01.444Z,17.64
2022-08-12T04:19:31.546Z,17.58
2022-08-12T04:22:04.074Z,17.52
2022-08-12T04:24:35.690Z,17.47
2022-08-12T04:27:08.715Z,17.49
2022-08-12T04:30:30.137Z,17.49
2022-08-12T04:32:29.332Z,17.42
2022-08-12T04:34:59.148Z,17.39
2022-08-12T04:37:58.825Z,17.31
2022-08-12T04:40:28.033Z,17.29
2022-08-12T04:42:58.758Z,17.27
2022-08-12T04:45:28.584Z,17.27
2022-08-12T04:47:58.538Z,17.26
2022-08-12T04:50:35.689Z,17.18
2022-08-12T04:53:13.142Z,17.19
2022-08-12T04:55:45.967Z,17.18
2022-08-12T04:58:15.774Z,17.21
2022-08-12T05:00:59.629Z,17.17
2022-08-12T05:03:46.041Z,17.15
2022-08-12T05:06:20.853Z,17.13
2022-08-12T05:09:00.753Z,17.15
2022-08-12T05:11:30.802Z,17.17
2022-08-12T05:14:03.115Z,17.18
2022-08-12T05:16:36.015Z,17.14
2022-08-12T05:19:06.253Z,17.15
2022-08-12T05:21:43.296Z,17.17
2022-08-12T05:24:15.704Z,17.28
2022-08-12T05:26:45.433Z,17.43
2022-08-12T05:30:06.438Z,17.43
2022-08-12T05:32:06.859Z,17.59
2022-08-12T05:34:36.820Z,17.67
2022-08-12T05:37:07.083Z,17.73
2022-08-12T05:39:39.565Z,17.89
2022-08-12T05:42:09.775Z,17.93
2022-08-12T05:44:39.804Z,17.91
2022-08-12T05:47:12.113Z,17.87
2022-08-12T05:49:42.545Z,17.97
2022-08-12T05:52:12.383Z,18.04
2022-08-12T05:54:56.953Z,18.10
2022-08-12T05:57:27.430Z,18.20
2022-08-12T05:59:57.203Z,18.24
2022-08-12T06:02:27.047Z,18.36
2022-08-12T06:04:57.869Z,18.40
2022-08-12T06:08:00.910Z,18.45
2022-08-12T06:10:31.592Z,18.47
2022-08-12T06:13:02.692Z,18.53
2022-08-12T06:15:33.477Z,18.65
2022-08-12T06:18:11.449Z,18.80
2022-08-12T06:20:43.972Z,18.89
2022-08-12T06:23:15.486Z,18.96
2022-08-12T06:25:47.832Z,19.13
2022-08-12T06:28:21.340Z,19.13
2022-08-12T06:31:22.182Z,19.29
2022-08-12T06:33:57.870Z,19.62
2022-08-12T06:36:34.383Z,19.99
2022-08-12T06:39:04.186Z,20.27
2022-08-12T06:42:04.987Z,20.65
2022-08-12T06:44:39.612Z,21.09
2022-08-12T06:47:09.710Z,21.64
2022-08-12T06:49:39.474Z,22.25
2022-08-12T06:52:09.831Z,22.85
2022-08-12T06:54:41.321Z,23.30
2022-08-12T06:58:07.049Z,24.08
2022-08-12T07:00:04.256Z,24.72
2022-08-12T07:02:37.994Z,25.32
2022-08-12T07:05:08.698Z,25.48
2022-08-12T07:07:39.038Z,26.05
2022-08-12T07:10:09.795Z,26.52
2022-08-12T07:12:42.690Z,26.90
2022-08-12T07:15:13.548Z,27.33
2022-08-12T07:17:43.769Z,27.44
2022-08-12T07:20:42.583Z,27.63
2022-08-12T07:23:08.666Z,27.96
2022-08-12T07:25:41.453Z,27.26
2022-08-12T07:28:17.613Z,27.74
2022-08-12T07:30:49.411Z,27.99
2022-08-12T07:33:22.454Z,28.48
2022-08-12T07:35:54.253Z,28.75
2022-08-12T07:38:30.791Z,29.07
2022-08-12T07:41:06.347Z,29.17
2022-08-12T07:43:40.535Z,29.41
2022-08-12T07:46:12.942Z,29.40
2022-08-12T07:48:45.035Z,29.37
2022-08-12T07:51:25.216Z,29.72
2022-08-12T07:54:00.261Z,29.38
2022-08-12T07:56:31.610Z,29.66
2022-08-12T07:59:04.136Z,29.93
2022-08-12T08:01:38.081Z,29.11
2022-08-12T08:04:21.670Z,29.27
2022-08-12T08:06:52.455Z,28.88
2022-08-12T08:09:24.976Z,29.33
2022-08-12T08:12:08.054Z,29.68
2022-08-12T08:14:40.741Z,29.78
2022-08-12T08:17:10.577Z,29.46
2022-08-12T08:20:02.151Z,29.13
2022-08-12T08:22:41.708Z,29.34
2022-08-12T08:25:35.338Z,29.73
2022-08-12T08:28:05.517Z,29.46
2022-08-12T08:30:39.158Z,29.62
2022-08-12T08:33:23.453Z,30.00
2022-08-12T08:35:55.243Z,30.05
2022-08-12T08:38:32.992Z,29.91
2022-08-12T08:42:16.165Z,30.13
2022-08-12T08:44:20.685Z,30.02
2022-08-12T08:46:55.752Z,30.15
2022-08-12T08:49:25.854Z,29.85
2022-08-12T08:51:55.898Z,29.84
2022-08-12T08:54:25.691Z,30.02
2022-08-12T08:56:55.440Z,29.95
2022-08-12T08:59:25.283Z,29.92
2022-08-12T09:01:58.056Z,29.93
2022-08-12T09:05:12.753Z,29.88
2022-08-12T09:07:51.906Z,30.04
2022-08-12T09:10:30.495Z,28.77
2022-08-12T09:13:19.319Z,29.18
2022-08-12T09:16:02.343Z,28.76
2022-08-12T09:18:35.786Z,28.66
2022-08-12T09:21:06.574Z,28.40
2022-08-12T09:23:59.614Z,28.31
2022-08-12T09:26:28.991Z,28.25
2022-08-12T09:29:00.790Z,28.50
2022-08-12T09:32:04.157Z,28.75
2022-08-12T09:34:28.937Z,28.87
2022-08-12T09:37:18.547Z,28.35
2022-08-12T09:40:05.578Z,28.87
2022-08-12T09:46:06.718Z,29.35
2022-08-12T09:48:44.441Z,28.72
2022-08-12T09:51:22.175Z,28.29
2022-08-12T09:54:08.506Z,28.65
2022-08-12T09:57:00.399Z,29.07
2022-08-12T10:00:17.899Z,29.19
2022-08-12T10:02:43.900Z,29.38
2022-08-12T10:05:17.841Z,29.67
2022-08-12T10:07:52.916Z,29.64
2022-08-12T10:10:25.160Z,29.64
2022-08-12T10:13:34.246Z,29.31
2022-08-12T10:16:06.433Z,29.43
2022-08-12T10:18:51.805Z,29.28
2022-08-12T10:21:24.191Z,29.56
2022-08-12T10:24:11.106Z,29.84
2022-08-12T10:26:55.329Z,29.92
2022-08-12T10:30:03.290Z,29.86
2022-08-12T10:32:44.814Z,29.24
2022-08-12T10:35:17.609Z,29.65
2022-08-12T10:38:38.615Z,29.91
2022-08-12T10:41:04.034Z,30.05
2022-08-12T10:43:55.795Z,30.71
2022-08-12T10:46:31.397Z,30.50
2022-08-12T10:49:06.511Z,30.95
2022-08-12T10:52:32.351Z,31.42
2022-08-12T10:54:43.370Z,31.62
2022-08-12T10:57:18.205Z,31.35
2022-08-12T11:00:34.110Z,31.23
2022-08-12T11:04:24.604Z,31.19
2022-08-12T11:07:05.152Z,31.16
2022-08-12T11:08:46.534Z,30.68
2022-08-12T11:12:35.593Z,31.10
2022-08-12T11:14:49.211Z,30.89
2022-08-12T11:17:43.462Z,31.47
2022-08-12T11:19:57.273Z,31.65
2022-08-12T11:22:27.033Z,32.03
2022-08-12T11:24:59.651Z,32.15
2022-08-12T11:27:29.653Z,31.97
2022-08-12T11:30:06.837Z,30.84
2022-08-12T11:32:51.794Z,31.06
2022-08-12T11:35:21.860Z,30.67
2022-08-12T11:37:57.846Z,31.23
2022-08-12T11:40:28.884Z,31.24
2022-08-12T11:43:18.618Z,31.07
2022-08-12T11:45:53.100Z,31.16
2022-08-12T11:48:26.986Z,31.55
2022-08-12T11:50:57.520Z,31.67
2022-08-12T11:53:59.965Z,31.76
2022-08-12T11:56:17.009Z,31.38
2022-08-12T12:01:58.658Z,31.16
2022-08-12T12:02:01.388Z,31.67
2022-08-12T12:04:29.659Z,31.52
2022-08-12T12:07:07.224Z,31.15
2022-08-12T12:09:53.105Z,30.63
2022-08-12T12:12:26.025Z,30.94
2022-08-12T12:14:58.623Z,30.54
2022-08-12T12:17:38.483Z,30.63
2022-08-12T12:20:11.647Z,30.85
2022-08-12T12:22:45.096Z,30.94
2022-08-12T12:25:15.501Z,30.30
2022-08-12T12:28:05.913Z,29.62
2022-08-12T12:30:36.431Z,29.57
2022-08-12T12:33:18.045Z,29.47
2022-08-12T12:36:16.629Z,29.81
2022-08-12T12:38:37.966Z,29.87
2022-08-12T12:41:16.916Z,29.83
2022-08-12T12:43:56.526Z,29.57
2022-08-12T12:46:33.698Z,29.52
2022-08-12T12:49:06.909Z,29.46
2022-08-12T12:51:58.135Z,29.34
2022-08-12T12:54:30.821Z,29.19
2022-08-12T12:57:01.924Z,29.17
2022-08-12T12:59:54.661Z,29.27
2022-08-12T13:02:31.419Z,29.31
2022-08-12T13:05:14.974Z,29.24
2022-08-12T13:07:49.261Z,28.63
2022-08-12T13:10:30.783Z,29.19
2022-08-12T13:14:09.432Z,29.64
2022-08-12T13:15:59.052Z,29.47
2022-08-12T13:18:36.526Z,29.67
2022-08-12T13:21:15.693Z,29.56
2022-08-12T13:24:02.800Z,29.67
2022-08-12T13:26:40.796Z,29.77
2022-08-12T13:29:11.576Z,29.69
2022-08-12T13:32:17.420Z,29.62
2022-08-12T13:34:35.626Z,29.24
2022-08-12T13:37:10.152Z,29.23
2022-08-12T13:39:40.866Z,29.59
2022-08-12T13:42:13.673Z,29.77
2022-08-12T13:44:46.287Z,29.98
2022-08-12T13:47:19.415Z,30.23
2022-08-12T13:49:54.543Z,29.33
2022-08-12T13:52:28.484Z,29.27
2022-08-12T13:54:58.273Z,29.26
2022-08-12T13:57:44.610Z,28.50
2022-08-12T14:00:18.163Z,29.08
2022-08-12T14:02:48.023Z,29.39
2022-08-12T14:05:37.437Z,29.55
2022-08-12T14:08:14.365Z,29.81
2022-08-12T14:10:55.959Z,29.92
2022-08-12T14:14:05.836Z,30.04
2022-08-12T14:16:37.934Z,30.19
2022-08-12T14:19:18.411Z,30.18
2022-08-12T14:22:01.139Z,29.93
2022-08-12T14:24:40.571Z,29.65
2022-08-12T14:27:11.740Z,29.84
2022-08-12T14:30:05.164Z,29.79
2022-08-12T14:32:37.149Z,29.51
2022-08-12T14:35:11.250Z,29.71
2022-08-12T14:37:57.864Z,29.70
2022-08-12T14:40:32.694Z,29.97
2022-08-12T14:43:06.247Z,29.85
2022-08-12T14:45:45.091Z,29.40
2022-08-12T14:48:24.153Z,28.98
2022-08-12T14:52:07.831Z,28.88
2022-08-12T14:55:28.342Z,28.14
2022-08-12T14:59:57.809Z,27.98
2022-08-12T15:02:28.752Z,27.80
2022-08-12T15:04:59.854Z,27.78
2022-08-12T15:07:33.383Z,27.91
2022-08-12T15:10:13.835Z,27.93
2022-08-12T15:12:50.626Z,28.05
2022-08-12T15:15:22.984Z,28.24
2022-08-12T15:17:59.260Z,28.37
2022-08-12T15:20:37.346Z,28.37
2022-08-12T15:23:18.118Z,28.62
2022-08-12T15:26:02.695Z,28.76
2022-08-12T15:28:37.616Z,28.71
2022-08-12T15:31:09.562Z,28.84
2022-08-12T15:33:58.127Z,28.92
2022-08-12T15:36:53.615Z,28.45
2022-08-12T15:39:17.937Z,28.31
2022-08-12T15:41:50.306Z,28.04
2022-08-12T15:44:38.130Z,27.87
2022-08-12T15:47:12.698Z,27.59
2022-08-12T15:50:00.711Z,27.45
2022-08-12T15:52:32.344Z,27.40
2022-08-12T15:55:06.292Z,27.21
2022-08-12T15:57:53.214Z,27.33
2022-08-12T16:00:32.830Z,27.31
2022-08-12T16:03:05.589Z,27.35
2022-08-12T16:06:11.882Z,27.30
2022-08-12T16:08:36.899Z,27.23
2022-08-12T16:11:07.430Z,27.31
2022-08-12T16:13:44.757Z,27.17
2022-08-12T16:16:24.152Z,27.03
2022-08-12T16:18:59.651Z,27.07
2022-08-12T16:21:51.203Z,27.04
2022-08-12T16:24:22.952Z,26.88
2022-08-12T16:26:55.055Z,26.90
2022-08-12T16:29:49.324Z,26.90
2022-08-12T16:32:31.245Z,26.86
2022-08-12T16:35:02.211Z,26.82
2022-08-12T16:38:25.013Z,26.90
2022-08-12T16:40:23.398Z,26.86
2022-08-12T16:43:02.226Z,26.85
2022-08-12T16:46:05.002Z,26.77
2022-08-12T16:48:35.851Z,26.77
2022-08-12T16:51:09.514Z,26.76
2022-08-12T16:53:44.776Z,26.70
2022-08-12T16:56:17.183Z,26.63
2022-08-12T16:58:47.516Z,26.64
2022-08-12T17:01:19.607Z,26.64
2022-08-12T17:04:08.702Z,26.66
2022-08-12T17:06:41.749Z,26.63
2022-08-12T17:09:17.197Z,26.62
2022-08-12T17:11:49.777Z,26.62
2022-08-12T17:14:23.497Z,26.61
2022-08-12T17:16:55.287Z,26.56
2022-08-12T17:20:29.356Z,26.53
2022-08-12T17:22:21.591Z,26.56
2022-08-12T17:24:55.646Z,26.49
2022-08-12T17:27:26.414Z,26.48
2022-08-12T17:30:05.149Z,26.42
2022-08-12T17:32:36.992Z,26.42
2022-08-12T17:35:30.035Z,26.37
2022-08-12T17:38:11.666Z,26.37
2022-08-12T17:40:42.141Z,26.31
2022-08-12T17:43:56.392Z,26.28
2022-08-12T17:46:13.001Z,26.21
2022-08-12T17:48:55.279Z,26.17
2022-08-12T17:51:34.637Z,26.10
2022-08-12T17:54:20.495Z,26.08
2022-08-12T17:56:54.794Z,26.01
2022-08-12T17:59:48.781Z,25.96
2022-08-12T18:02:25.641Z,25.91
2022-08-12T18:05:09.486Z,25.86
2022-08-12T18:07:43.782Z,25.83
2022-08-12T18:10:14.729Z,25.78
2022-08-12T18:12:42.753Z,25.77
2022-08-12T18:15:26.930Z,25.75
2022-08-12T18:18:16.793Z,25.68
2022-08-12T18:20:47.320Z,25.60
2022-08-12T18:23:24.184Z,25.60
2022-08-12T18:26:15.237Z,25.48
2022-08-12T18:28:48.558Z,25.43
2022-08-12T18:31:22.144Z,25.38
2022-08-12T18:33:52.845Z,25.23
2022-08-12T18:36:23.531Z,25.19
2022-08-12T18:38:59.438Z,25.15
2022-08-12T18:41:32.060Z,25.00
2022-08-12T18:44:09.315Z,24.87
2022-08-12T18:46:53.844Z,24.77
2022-08-12T18:49:35.031Z,24.69
2022-08-12T18:52:11.597Z,24.57
2022-08-12T18:54:48.712Z,24.42
2022-08-12T18:58:05.997Z,24.31
2022-08-12T19:00:18.873Z,24.14
2022-08-12T19:02:53.988Z,24.01
2022-08-12T19:05:25.054Z,24.05
2022-08-12T19:08:15.927Z,24.13
2022-08-12T19:10:50.529Z,24.26
2022-08-12T19:13:34.841Z,24.25
2022-08-12T19:16:12.760Z,24.39
2022-08-12T19:18:44.477Z,24.34
2022-08-12T19:21:16.645Z,24.34
2022-08-12T19:24:09.752Z,24.29
2022-08-12T19:26:42.561Z,24.19
2022-08-12T19:29:13.467Z,24.19
2022-08-12T19:31:57.242Z,24.16
2022-08-12T19:37:38.535Z,24.12
2022-08-12T19:40:30.771Z,23.99
2022-08-12T19:43:17.313Z,23.96
2022-08-12T19:45:53.619Z,23.89
2022-08-12T19:48:27.491Z,23.91
2022-08-12T19:50:57.818Z,23.82
2022-08-12T19:53:29.211Z,23.81
2022-08-12T19:55:59.740Z,23.79
2022-08-12T19:58:32.135Z,23.81
2022-08-12T20:01:02.719Z,23.76
2022-08-12T20:03:41.450Z,23.81
2022-08-12T20:06:15.631Z,23.79
2022-08-12T20:08:56.675Z,23.83
2022-08-12T20:12:12.525Z,23.81
2022-08-12T20:14:21.810Z,23.71
2022-08-12T20:17:02.678Z,23.65
2022-08-12T20:20:00.960Z,23.63
2022-08-12T20:22:29.402Z,23.54
2022-08-12T20:25:01.579Z,23.50
2022-08-12T20:28:04.173Z,23.50
2022-08-12T20:30:37.885Z,23.43
2022-08-12T20:33:23.217Z,23.33
2022-08-12T20:36:13.261Z,23.25
2022-08-12T20:38:52.590Z,23.21
2022-08-12T20:41:25.305Z,23.12
2022-08-12T20:43:57.492Z,23.10
2022-08-12T20:46:31.881Z,23.05
2022-08-12T20:49:17.653Z,22.98
2022-08-12T20:51:55.349Z,22.97
2022-08-12T20:54:32.748Z,22.89
2022-08-12T20:57:07.527Z,22.81
2022-08-12T20:59:47.911Z,22.83
2022-08-12T21:02:24.709Z,22.78
2022-08-12T21:05:23.373Z,22.77
2022-08-12T21:07:53.135Z,22.75
2022-08-12T21:10:26.528Z,22.71
2022-08-12T21:12:56.981Z,22.57
2022-08-12T21:15:30.345Z,22.56
2022-08-12T21:18:28.373Z,22.54
2022-08-12T21:21:00.260Z,22.65
2022-08-12T21:23:31.118Z,22.60
2022-08-12T21:26:11.437Z,22.56
2022-08-12T21:28:58.089Z,22.52
2022-08-12T21:32:36.495Z,22.41
2022-08-12T21:34:29.204Z,22.36
2022-08-12T21:37:12.951Z,22.31
2022-08-12T21:39:51.984Z,22.33
2022-08-12T21:42:28.071Z,22.31
2022-08-12T21:45:46.085Z,22.30
2022-08-12T21:47:53.345Z,22.15
2022-08-12T21:50:29.477Z,22.03
2022-08-12T21:53:02.417Z,21.93
2022-08-12T21:55:40.470Z,21.79
2022-08-12T21:58:16.716Z,21.74
2022-08-12T22:00:46.579Z,21.66
2022-08-12T22:04:03.497Z,21.55
2022-08-12T22:06:31.114Z,21.49
2022-08-12T22:09:15.910Z,21.47
2022-08-12T22:11:57.057Z,21.42
2022-08-12T22:14:30.412Z,21.33
2022-08-12T22:17:05.253Z,21.38
2022-08-12T22:19:36.601Z,21.32
2022-08-12T22:22:10.127Z,21.25
2022-08-12T22:24:42.329Z,21.16
2022-08-12T22:27:31.604Z,21.11
2022-08-12T22:30:16.330Z,21.08
2022-08-12T22:32:54.919Z,20.98
2022-08-12T22:35:56.153Z,20.95
2022-08-12T22:38:31.340Z,20.95
2022-08-12T22:41:03.086Z,20.98
2022-08-12T22:44:00.604Z,20.88
2022-08-12T22:46:51.945Z,20.80
2022-08-12T22:49:26.029Z,20.76
2022-08-12T22:52:11.111Z,20.72
2022-08-12T22:54:58.026Z,20.61
2022-08-12T22:57:49.150Z,20.51
2022-08-12T23:00:27.910Z,20.41
2022-08-12T23:03:02.665Z,20.35
2022-08-12T23:06:09.506Z,20.37
2022-08-12T23:08:31.909Z,20.32
2022-08-12T23:11:08.343Z,20.26
2022-08-12T23:13:57.006Z,20.35
2022-08-12T23:16:33.488Z,20.31
2022-08-12T23:19:10.952Z,20.25
2022-08-12T23:22:05.471Z,20.15
2022-08-12T23:24:56.242Z,20.17
2022-08-12T23:27:51.305Z,20.12
2022-08-12T23:30:32.394Z,19.96
2022-08-12T23:33:13.267Z,20.00
2022-08-12T23:36:02.279Z,19.92
2022-08-12T23:38:34.787Z,19.86
2022-08-12T23:41:06.125Z,19.89
2022-08-12T23:43:41.006Z,19.75
2022-08-12T23:46:22.197Z,19.73
2022-08-12T23:48:58.619Z,19.67
2022-08-12T23:51:32.059Z,19.54
2022-08-12T23:54:07.383Z,19.35
2022-08-12T23:56:38.732Z,19.26
2022-08-12T23:59:16.707Z,19.27
